sensor_id;sensor_type;location;lat;lon;timestamp;pressure;altitude;pressure_sealevel;temperature
20289;BMP180;10303;51.960;8.372;2024-02-21T00:01:06;101075.00;;;12.10
20289;BMP180;10303;51.960;8.372;2024-02-21T00:03:32;101079.00;;;12.10
20289;BMP180;10303;51.960;8.372;2024-02-21T00:05:58;101066.00;;;12.10
20289;BMP180;10303;51.960;8.372;2024-02-21T00:08:24;101073.00;;;12.10
20289;BMP180;10303;51.960;8.372;2024-02-21T00:10:50;101079.00;;;12.00
20289;BMP180;10303;51.960;8.372;2024-02-21T00:13:16;101074.00;;;12.00
20289;BMP180;10303;51.960;8.372;2024-02-21T00:15:41;101062.00;;;12.00
20289;BMP180;10303;51.960;8.372;2024-02-21T00:18:07;101073.00;;;12.00
20289;BMP180;10303;51.960;8.372;2024-02-21T00:20:33;101065.00;;;12.00
20289;BMP180;10303;51.960;8.372;2024-02-21T00:22:59;101061.00;;;12.00
20289;BMP180;10303;51.960;8.372;2024-02-21T00:25:25;101058.00;;;12.00
20289;BMP180;10303;51.960;8.372;2024-02-21T00:27:51;101054.00;;;12.00
20289;BMP180;10303;51.960;8.372;2024-02-21T00:30:17;101056.00;;;12.00
20289;BMP180;10303;51.960;8.372;2024-02-21T00:32:42;101052.00;;;12.00
20289;BMP180;10303;51.960;8.372;2024-02-21T00:35:08;101041.00;;;12.00
20289;BMP180;10303;51.960;8.372;2024-02-21T00:37:34;101034.00;;;12.00
20289;BMP180;10303;51.960;8.372;2024-02-21T00:40:00;101029.00;;;12.00
20289;BMP180;10303;51.960;8.372;2024-02-21T00:42:26;101027.00;;;12.10
20289;BMP180;10303;51.960;8.372;2024-02-21T00:44:52;101021.00;;;12.10
20289;BMP180;10303;51.960;8.372;2024-02-21T00:47:18;101012.00;;;12.10
20289;BMP180;10303;51.960;8.372;2024-02-21T00:49:43;101024.00;;;12.10
20289;BMP180;10303;51.960;8.372;2024-02-21T00:52:09;101022.00;;;12.10
20289;BMP180;10303;51.960;8.372;2024-02-21T00:54:35;101017.00;;;12.10
20289;BMP180;10303;51.960;8.372;2024-02-21T00:57:01;100996.00;;;12.10
20289;BMP180;10303;51.960;8.372;2024-02-21T00:59:27;100998.00;;;12.10
20289;BMP180;10303;51.960;8.372;2024-02-21T01:01:53;100995.00;;;12.10
20289;BMP180;10303;51.960;8.372;2024-02-21T01:04:18;100997.00;;;12.10
20289;BMP180;10303;51.960;8.372;2024-02-21T01:06:45;100996.00;;;12.10
20289;BMP180;10303;51.960;8.372;2024-02-21T01:09:13;100991.00;;;12.10
20289;BMP180;10303;51.960;8.372;2024-02-21T01:11:39;101000.00;;;12.20
20289;BMP180;10303;51.960;8.372;2024-02-21T01:14:05;100999.00;;;12.20
20289;BMP180;10303;51.960;8.372;2024-02-21T01:16:31;101015.00;;;12.10
20289;BMP180;10303;51.960;8.372;2024-02-21T01:18:57;101003.00;;;12.10
20289;BMP180;10303;51.960;8.372;2024-02-21T01:21:23;100993.00;;;12.10
20289;BMP180;10303;51.960;8.372;2024-02-21T01:23:49;100992.00;;;12.20
20289;BMP180;10303;51.960;8.372;2024-02-21T01:26:15;100998.00;;;12.20
20289;BMP180;10303;51.960;8.372;2024-02-21T01:28:41;100994.00;;;12.20
20289;BMP180;10303;51.960;8.372;2024-02-21T01:31:08;100986.00;;;12.20
20289;BMP180;10303;51.960;8.372;2024-02-21T01:33:34;100986.00;;;12.20
20289;BMP180;10303;51.960;8.372;2024-02-21T01:36:05;100982.00;;;12.20
20289;BMP180;10303;51.960;8.372;2024-02-21T01:38:34;100982.00;;;12.20
20289;BMP180;10303;51.960;8.372;2024-02-21T01:41:01;100973.00;;;12.20
20289;BMP180;10303;51.960;8.372;2024-02-21T01:43:27;100980.00;;;12.20
20289;BMP180;10303;51.960;8.372;2024-02-21T01:45:56;100975.00;;;12.20
20289;BMP180;10303;51.960;8.372;2024-02-21T01:48:23;100967.00;;;12.10
20289;BMP180;10303;51.960;8.372;2024-02-21T01:50:50;100959.00;;;12.20
20289;BMP180;10303;51.960;8.372;2024-02-21T01:53:21;100959.00;;;12.10
20289;BMP180;10303;51.960;8.372;2024-02-21T01:55:48;100976.00;;;12.20
20289;BMP180;10303;51.960;8.372;2024-02-21T01:58:15;100959.00;;;12.20
20289;BMP180;10303;51.960;8.372;2024-02-21T02:00:45;100952.00;;;12.20
20289;BMP180;10303;51.960;8.372;2024-02-21T02:03:13;100939.00;;;12.20
20289;BMP180;10303;51.960;8.372;2024-02-21T02:05:44;100937.00;;;12.20
20289;BMP180;10303;51.960;8.372;2024-02-21T02:08:14;100933.00;;;12.20
20289;BMP180;10303;51.960;8.372;2024-02-21T02:10:40;100921.00;;;12.20
20289;BMP180;10303;51.960;8.372;2024-02-21T02:13:07;100930.00;;;12.20
20289;BMP180;10303;51.960;8.372;2024-02-21T02:15:48;100926.00;;;12.20
20289;BMP180;10303;51.960;8.372;2024-02-21T02:18:16;100924.00;;;12.20
20289;BMP180;10303;51.960;8.372;2024-02-21T02:20:44;100926.00;;;12.20
20289;BMP180;10303;51.960;8.372;2024-02-21T02:23:22;100922.00;;;12.20
20289;BMP180;10303;51.960;8.372;2024-02-21T02:25:48;100915.00;;;12.20
20289;BMP180;10303;51.960;8.372;2024-02-21T02:28:15;100910.00;;;12.20
20289;BMP180;10303;51.960;8.372;2024-02-21T02:30:41;100912.00;;;12.20
20289;BMP180;10303;51.960;8.372;2024-02-21T02:33:07;100918.00;;;12.20
20289;BMP180;10303;51.960;8.372;2024-02-21T02:35:33;100909.00;;;12.20
20289;BMP180;10303;51.960;8.372;2024-02-21T02:38:01;100905.00;;;12.20
20289;BMP180;10303;51.960;8.372;2024-02-21T02:40:26;100910.00;;;12.20
20289;BMP180;10303;51.960;8.372;2024-02-21T02:42:53;100895.00;;;12.20
20289;BMP180;10303;51.960;8.372;2024-02-21T02:45:22;100890.00;;;12.20
20289;BMP180;10303;51.960;8.372;2024-02-21T02:47:49;100894.00;;;12.20
20289;BMP180;10303;51.960;8.372;2024-02-21T02:50:15;100873.00;;;12.20
20289;BMP180;10303;51.960;8.372;2024-02-21T02:52:41;100878.00;;;12.20
20289;BMP180;10303;51.960;8.372;2024-02-21T02:55:07;100875.00;;;12.20
20289;BMP180;10303;51.960;8.372;2024-02-21T02:57:33;100854.00;;;12.20
20289;BMP180;10303;51.960;8.372;2024-02-21T02:59:59;100858.00;;;12.30
20289;BMP180;10303;51.960;8.372;2024-02-21T03:02:25;100844.00;;;12.20
20289;BMP180;10303;51.960;8.372;2024-02-21T03:04:50;100851.00;;;12.30
20289;BMP180;10303;51.960;8.372;2024-02-21T03:07:16;100823.00;;;12.20
20289;BMP180;10303;51.960;8.372;2024-02-21T03:09:42;100832.00;;;12.20
20289;BMP180;10303;51.960;8.372;2024-02-21T03:12:09;100827.00;;;12.30
20289;BMP180;10303;51.960;8.372;2024-02-21T03:14:35;100820.00;;;12.30
20289;BMP180;10303;51.960;8.372;2024-02-21T03:17:02;100826.00;;;12.30
20289;BMP180;10303;51.960;8.372;2024-02-21T03:19:29;100812.00;;;12.30
20289;BMP180;10303;51.960;8.372;2024-02-21T03:21:55;100816.00;;;12.30
20289;BMP180;10303;51.960;8.372;2024-02-21T03:24:21;100809.00;;;12.30
20289;BMP180;10303;51.960;8.372;2024-02-21T03:26:48;100827.00;;;12.30
20289;BMP180;10303;51.960;8.372;2024-02-21T03:29:16;100821.00;;;12.30
20289;BMP180;10303;51.960;8.372;2024-02-21T03:31:43;100833.00;;;12.30
20289;BMP180;10303;51.960;8.372;2024-02-21T03:34:10;100835.00;;;12.30
20289;BMP180;10303;51.960;8.372;2024-02-21T03:36:37;100846.00;;;12.30
20289;BMP180;10303;51.960;8.372;2024-02-21T03:39:03;100848.00;;;12.30
20289;BMP180;10303;51.960;8.372;2024-02-21T03:41:29;100850.00;;;12.30
20289;BMP180;10303;51.960;8.372;2024-02-21T03:43:55;100856.00;;;12.30
20289;BMP180;10303;51.960;8.372;2024-02-21T03:46:21;100844.00;;;12.30
20289;BMP180;10303;51.960;8.372;2024-02-21T03:48:47;100856.00;;;12.30
20289;BMP180;10303;51.960;8.372;2024-02-21T03:51:13;100848.00;;;12.30
20289;BMP180;10303;51.960;8.372;2024-02-21T03:53:40;100860.00;;;12.30
20289;BMP180;10303;51.960;8.372;2024-02-21T03:56:06;100861.00;;;12.30
20289;BMP180;10303;51.960;8.372;2024-02-21T03:58:33;100855.00;;;12.30
20289;BMP180;10303;51.960;8.372;2024-02-21T04:01:03;100862.00;;;12.20
20289;BMP180;10303;51.960;8.372;2024-02-21T04:03:30;100852.00;;;12.20
20289;BMP180;10303;51.960;8.372;2024-02-21T04:05:56;100839.00;;;12.20
20289;BMP180;10303;51.960;8.372;2024-02-21T04:08:23;100829.00;;;12.20
20289;BMP180;10303;51.960;8.372;2024-02-21T04:10:50;100833.00;;;12.20
20289;BMP180;10303;51.960;8.372;2024-02-21T04:13:15;100844.00;;;12.20
20289;BMP180;10303;51.960;8.372;2024-02-21T04:15:41;100835.00;;;12.10
20289;BMP180;10303;51.960;8.372;2024-02-21T04:18:07;100843.00;;;12.10
20289;BMP180;10303;51.960;8.372;2024-02-21T04:20:34;100852.00;;;12.10
20289;BMP180;10303;51.960;8.372;2024-02-21T04:23:00;100848.00;;;12.10
20289;BMP180;10303;51.960;8.372;2024-02-21T04:25:26;100847.00;;;12.10
20289;BMP180;10303;51.960;8.372;2024-02-21T04:27:52;100845.00;;;12.10
20289;BMP180;10303;51.960;8.372;2024-02-21T04:30:18;100843.00;;;12.10
20289;BMP180;10303;51.960;8.372;2024-02-21T04:32:44;100834.00;;;12.10
20289;BMP180;10303;51.960;8.372;2024-02-21T04:35:10;100852.00;;;12.10
20289;BMP180;10303;51.960;8.372;2024-02-21T04:37:36;100846.00;;;12.10
20289;BMP180;10303;51.960;8.372;2024-02-21T04:40:02;100844.00;;;12.10
20289;BMP180;10303;51.960;8.372;2024-02-21T04:42:28;100845.00;;;12.10
20289;BMP180;10303;51.960;8.372;2024-02-21T04:44:54;100828.00;;;12.10
20289;BMP180;10303;51.960;8.372;2024-02-21T04:47:20;100839.00;;;12.10
20289;BMP180;10303;51.960;8.372;2024-02-21T04:49:46;100844.00;;;12.10
20289;BMP180;10303;51.960;8.372;2024-02-21T04:52:12;100847.00;;;12.10
20289;BMP180;10303;51.960;8.372;2024-02-21T04:54:38;100845.00;;;12.10
20289;BMP180;10303;51.960;8.372;2024-02-21T04:57:04;100855.00;;;12.10
20289;BMP180;10303;51.960;8.372;2024-02-21T04:59:30;100867.00;;;12.20
20289;BMP180;10303;51.960;8.372;2024-02-21T05:01:56;100856.00;;;12.10
20289;BMP180;10303;51.960;8.372;2024-02-21T05:04:22;100860.00;;;12.10
20289;BMP180;10303;51.960;8.372;2024-02-21T05:06:48;100857.00;;;12.10
20289;BMP180;10303;51.960;8.372;2024-02-21T05:09:14;100852.00;;;12.10
20289;BMP180;10303;51.960;8.372;2024-02-21T05:11:40;100861.00;;;12.10
20289;BMP180;10303;51.960;8.372;2024-02-21T05:14:06;100859.00;;;12.10
20289;BMP180;10303;51.960;8.372;2024-02-21T05:16:32;100849.00;;;12.10
20289;BMP180;10303;51.960;8.372;2024-02-21T05:18:58;100844.00;;;12.10
20289;BMP180;10303;51.960;8.372;2024-02-21T05:21:24;100829.00;;;12.00
20289;BMP180;10303;51.960;8.372;2024-02-21T05:23:51;100820.00;;;12.00
20289;BMP180;10303;51.960;8.372;2024-02-21T05:26:29;100808.00;;;11.90
20289;BMP180;10303;51.960;8.372;2024-02-21T05:28:55;100793.00;;;12.00
20289;BMP180;10303;51.960;8.372;2024-02-21T05:31:21;100793.00;;;11.90
20289;BMP180;10303;51.960;8.372;2024-02-21T05:33:49;100793.00;;;11.90
20289;BMP180;10303;51.960;8.372;2024-02-21T05:36:15;100789.00;;;11.90
20289;BMP180;10303;51.960;8.372;2024-02-21T05:38:42;100788.00;;;11.90
20289;BMP180;10303;51.960;8.372;2024-02-21T05:41:08;100788.00;;;11.90
20289;BMP180;10303;51.960;8.372;2024-02-21T05:43:33;100788.00;;;11.90
20289;BMP180;10303;51.960;8.372;2024-02-21T05:45:59;100781.00;;;11.90
20289;BMP180;10303;51.960;8.372;2024-02-21T05:48:25;100775.00;;;11.90
20289;BMP180;10303;51.960;8.372;2024-02-21T05:50:51;100784.00;;;11.90
20289;BMP180;10303;51.960;8.372;2024-02-21T05:53:17;100767.00;;;11.90
20289;BMP180;10303;51.960;8.372;2024-02-21T05:55:43;100779.00;;;11.90
20289;BMP180;10303;51.960;8.372;2024-02-21T05:58:10;100768.00;;;11.90
20289;BMP180;10303;51.960;8.372;2024-02-21T06:00:39;100758.00;;;11.90
20289;BMP180;10303;51.960;8.372;2024-02-21T06:03:05;100765.00;;;11.90
20289;BMP180;10303;51.960;8.372;2024-02-21T06:05:37;100766.00;;;11.90
20289;BMP180;10303;51.960;8.372;2024-02-21T06:08:04;100762.00;;;11.90
20289;BMP180;10303;51.960;8.372;2024-02-21T06:10:30;100763.00;;;11.90
20289;BMP180;10303;51.960;8.372;2024-02-21T06:12:56;100778.00;;;11.90
20289;BMP180;10303;51.960;8.372;2024-02-21T06:15:22;100770.00;;;11.90
20289;BMP180;10303;51.960;8.372;2024-02-21T06:17:48;100773.00;;;12.00
20289;BMP180;10303;51.960;8.372;2024-02-21T06:20:16;100783.00;;;11.90
20289;BMP180;10303;51.960;8.372;2024-02-21T06:22:42;100785.00;;;12.00
20289;BMP180;10303;51.960;8.372;2024-02-21T06:25:08;100777.00;;;12.00
20289;BMP180;10303;51.960;8.372;2024-02-21T06:27:34;100769.00;;;12.00
20289;BMP180;10303;51.960;8.372;2024-02-21T06:30:00;100759.00;;;12.00
20289;BMP180;10303;51.960;8.372;2024-02-21T06:32:26;100757.00;;;12.00
20289;BMP180;10303;51.960;8.372;2024-02-21T06:34:52;100744.00;;;12.00
20289;BMP180;10303;51.960;8.372;2024-02-21T06:37:18;100741.00;;;12.00
20289;BMP180;10303;51.960;8.372;2024-02-21T06:39:43;100736.00;;;12.00
20289;BMP180;10303;51.960;8.372;2024-02-21T06:42:09;100733.00;;;12.00
20289;BMP180;10303;51.960;8.372;2024-02-21T06:44:35;100729.00;;;12.10
20289;BMP180;10303;51.960;8.372;2024-02-21T06:47:06;100738.00;;;12.00
20289;BMP180;10303;51.960;8.372;2024-02-21T06:49:33;100732.00;;;12.10
20289;BMP180;10303;51.960;8.372;2024-02-21T06:51:59;100733.00;;;12.10
20289;BMP180;10303;51.960;8.372;2024-02-21T06:54:25;100732.00;;;12.10
20289;BMP180;10303;51.960;8.372;2024-02-21T06:56:51;100723.00;;;12.10
20289;BMP180;10303;51.960;8.372;2024-02-21T06:59:17;100724.00;;;12.10
20289;BMP180;10303;51.960;8.372;2024-02-21T07:01:48;100726.00;;;12.10
20289;BMP180;10303;51.960;8.372;2024-02-21T07:04:14;100722.00;;;12.20
20289;BMP180;10303;51.960;8.372;2024-02-21T07:06:40;100711.00;;;12.20
20289;BMP180;10303;51.960;8.372;2024-02-21T07:09:06;100715.00;;;12.20
20289;BMP180;10303;51.960;8.372;2024-02-21T07:11:32;100716.00;;;12.20
20289;BMP180;10303;51.960;8.372;2024-02-21T07:13:58;100704.00;;;12.20
20289;BMP180;10303;51.960;8.372;2024-02-21T07:16:24;100717.00;;;12.20
20289;BMP180;10303;51.960;8.372;2024-02-21T07:18:49;100723.00;;;12.20
20289;BMP180;10303;51.960;8.372;2024-02-21T07:21:15;100728.00;;;12.20
20289;BMP180;10303;51.960;8.372;2024-02-21T07:23:42;100736.00;;;12.30
20289;BMP180;10303;51.960;8.372;2024-02-21T07:26:08;100728.00;;;12.30
20289;BMP180;10303;51.960;8.372;2024-02-21T07:28:33;100746.00;;;12.30
20289;BMP180;10303;51.960;8.372;2024-02-21T07:31:00;100742.00;;;12.30
20289;BMP180;10303;51.960;8.372;2024-02-21T07:33:26;100743.00;;;12.30
20289;BMP180;10303;51.960;8.372;2024-02-21T07:35:52;100736.00;;;12.30
20289;BMP180;10303;51.960;8.372;2024-02-21T07:38:17;100736.00;;;12.30
20289;BMP180;10303;51.960;8.372;2024-02-21T07:40:47;100740.00;;;12.30
20289;BMP180;10303;51.960;8.372;2024-02-21T07:43:13;100732.00;;;12.40
20289;BMP180;10303;51.960;8.372;2024-02-21T07:45:38;100738.00;;;12.40
20289;BMP180;10303;51.960;8.372;2024-02-21T07:48:06;100733.00;;;12.40
20289;BMP180;10303;51.960;8.372;2024-02-21T07:50:32;100722.00;;;12.50
20289;BMP180;10303;51.960;8.372;2024-02-21T07:52:58;100727.00;;;12.50
20289;BMP180;10303;51.960;8.372;2024-02-21T07:55:24;100727.00;;;12.50
20289;BMP180;10303;51.960;8.372;2024-02-21T07:57:50;100726.00;;;12.60
20289;BMP180;10303;51.960;8.372;2024-02-21T08:00:16;100723.00;;;12.60
20289;BMP180;10303;51.960;8.372;2024-02-21T08:02:48;100726.00;;;12.60
20289;BMP180;10303;51.960;8.372;2024-02-21T08:05:14;100723.00;;;12.60
20289;BMP180;10303;51.960;8.372;2024-02-21T08:07:40;100720.00;;;12.60
20289;BMP180;10303;51.960;8.372;2024-02-21T08:10:07;100715.00;;;12.60
20289;BMP180;10303;51.960;8.372;2024-02-21T08:12:34;100710.00;;;12.60
20289;BMP180;10303;51.960;8.372;2024-02-21T08:15:00;100718.00;;;12.60
20289;BMP180;10303;51.960;8.372;2024-02-21T08:17:26;100713.00;;;12.60
20289;BMP180;10303;51.960;8.372;2024-02-21T08:19:52;100710.00;;;12.70
20289;BMP180;10303;51.960;8.372;2024-02-21T08:22:18;100702.00;;;12.60
20289;BMP180;10303;51.960;8.372;2024-02-21T08:24:44;100691.00;;;12.70
20289;BMP180;10303;51.960;8.372;2024-02-21T08:27:10;100682.00;;;12.70
20289;BMP180;10303;51.960;8.372;2024-02-21T08:29:35;100683.00;;;12.80
20289;BMP180;10303;51.960;8.372;2024-02-21T08:32:01;100672.00;;;12.80
20289;BMP180;10303;51.960;8.372;2024-02-21T08:34:27;100674.00;;;12.80
20289;BMP180;10303;51.960;8.372;2024-02-21T08:36:56;100677.00;;;12.90
20289;BMP180;10303;51.960;8.372;2024-02-21T08:39:21;100673.00;;;13.00
20289;BMP180;10303;51.960;8.372;2024-02-21T08:41:47;100666.00;;;13.00
20289;BMP180;10303;51.960;8.372;2024-02-21T08:44:13;100662.00;;;13.10
20289;BMP180;10303;51.960;8.372;2024-02-21T08:46:39;100666.00;;;13.10
20289;BMP180;10303;51.960;8.372;2024-02-21T08:49:06;100657.00;;;13.20
20289;BMP180;10303;51.960;8.372;2024-02-21T08:51:32;100660.00;;;13.20
20289;BMP180;10303;51.960;8.372;2024-02-21T08:53:58;100657.00;;;13.20
20289;BMP180;10303;51.960;8.372;2024-02-21T08:56:25;100658.00;;;13.20
20289;BMP180;10303;51.960;8.372;2024-02-21T08:58:51;100650.00;;;13.20
20289;BMP180;10303;51.960;8.372;2024-02-21T09:01:17;100648.00;;;13.30
20289;BMP180;10303;51.960;8.372;2024-02-21T09:03:43;100645.00;;;13.30
20289;BMP180;10303;51.960;8.372;2024-02-21T09:06:11;100649.00;;;13.30
20289;BMP180;10303;51.960;8.372;2024-02-21T09:08:38;100653.00;;;13.30
20289;BMP180;10303;51.960;8.372;2024-02-21T09:11:06;100653.00;;;13.30
20289;BMP180;10303;51.960;8.372;2024-02-21T09:13:32;100638.00;;;13.40
20289;BMP180;10303;51.960;8.372;2024-02-21T09:15:58;100657.00;;;13.40
20289;BMP180;10303;51.960;8.372;2024-02-21T09:18:24;100658.00;;;13.50
20289;BMP180;10303;51.960;8.372;2024-02-21T09:20:50;100655.00;;;13.40
20289;BMP180;10303;51.960;8.372;2024-02-21T09:23:16;100641.00;;;13.50
20289;BMP180;10303;51.960;8.372;2024-02-21T09:25:42;100639.00;;;13.50
20289;BMP180;10303;51.960;8.372;2024-02-21T09:28:08;100654.00;;;13.60
20289;BMP180;10303;51.960;8.372;2024-02-21T09:30:34;100652.00;;;13.60
20289;BMP180;10303;51.960;8.372;2024-02-21T09:33:00;100640.00;;;13.70
20289;BMP180;10303;51.960;8.372;2024-02-21T09:35:27;100650.00;;;13.70
20289;BMP180;10303;51.960;8.372;2024-02-21T09:37:54;100650.00;;;13.70
20289;BMP180;10303;51.960;8.372;2024-02-21T09:40:20;100635.00;;;13.70
20289;BMP180;10303;51.960;8.372;2024-02-21T09:42:48;100626.00;;;13.70
20289;BMP180;10303;51.960;8.372;2024-02-21T09:45:24;100617.00;;;13.70
20289;BMP180;10303;51.960;8.372;2024-02-21T09:50:40;100614.00;;;13.80
20289;BMP180;10303;51.960;8.372;2024-02-21T09:53:07;100602.00;;;13.80
20289;BMP180;10303;51.960;8.372;2024-02-21T09:55:33;100599.00;;;13.80
20289;BMP180;10303;51.960;8.372;2024-02-21T09:58:04;100601.00;;;13.90
20289;BMP180;10303;51.960;8.372;2024-02-21T10:00:30;100606.00;;;13.90
20289;BMP180;10303;51.960;8.372;2024-02-21T10:02:56;100591.00;;;13.90
20289;BMP180;10303;51.960;8.372;2024-02-21T10:05:23;100601.00;;;13.90
20289;BMP180;10303;51.960;8.372;2024-02-21T10:07:51;100591.00;;;14.00
20289;BMP180;10303;51.960;8.372;2024-02-21T10:10:17;100596.00;;;14.00
20289;BMP180;10303;51.960;8.372;2024-02-21T10:12:51;100591.00;;;14.00
20289;BMP180;10303;51.960;8.372;2024-02-21T10:15:24;100598.00;;;14.00
20289;BMP180;10303;51.960;8.372;2024-02-21T10:18:00;100593.00;;;13.90
20289;BMP180;10303;51.960;8.372;2024-02-21T10:20:27;100589.00;;;14.00
20289;BMP180;10303;51.960;8.372;2024-02-21T10:23:03;100589.00;;;14.00
20289;BMP180;10303;51.960;8.372;2024-02-21T10:25:39;100588.00;;;14.00
20289;BMP180;10303;51.960;8.372;2024-02-21T10:28:07;100577.00;;;13.90
20289;BMP180;10303;51.960;8.372;2024-02-21T10:30:33;100591.00;;;13.90
20289;BMP180;10303;51.960;8.372;2024-02-21T10:32:59;100582.00;;;13.90
20289;BMP180;10303;51.960;8.372;2024-02-21T10:35:30;100595.00;;;13.90
20289;BMP180;10303;51.960;8.372;2024-02-21T10:37:57;100588.00;;;13.90
20289;BMP180;10303;51.960;8.372;2024-02-21T10:40:28;100598.00;;;13.90
20289;BMP180;10303;51.960;8.372;2024-02-21T10:43:01;100578.00;;;13.80
20289;BMP180;10303;51.960;8.372;2024-02-21T10:45:36;100575.00;;;13.80
20289;BMP180;10303;51.960;8.372;2024-02-21T10:48:12;100581.00;;;13.80
20289;BMP180;10303;51.960;8.372;2024-02-21T10:54:01;100566.00;;;13.70
20289;BMP180;10303;51.960;8.372;2024-02-21T10:56:29;100546.00;;;13.80
20289;BMP180;10303;51.960;8.372;2024-02-21T10:58:58;100551.00;;;13.80
20289;BMP180;10303;51.960;8.372;2024-02-21T11:01:28;100546.00;;;13.80
20289;BMP180;10303;51.960;8.372;2024-02-21T11:03:58;100544.00;;;13.80
20289;BMP180;10303;51.960;8.372;2024-02-21T11:06:26;100542.00;;;13.80
20289;BMP180;10303;51.960;8.372;2024-02-21T11:09:07;100524.00;;;13.70
20289;BMP180;10303;51.960;8.372;2024-02-21T11:11:44;100516.00;;;13.70
20289;BMP180;10303;51.960;8.372;2024-02-21T11:14:18;100515.00;;;13.70
20289;BMP180;10303;51.960;8.372;2024-02-21T11:16:44;100515.00;;;13.70
20289;BMP180;10303;51.960;8.372;2024-02-21T11:19:24;100503.00;;;13.80
20289;BMP180;10303;51.960;8.372;2024-02-21T11:21:52;100502.00;;;13.80
20289;BMP180;10303;51.960;8.372;2024-02-21T11:24:32;100494.00;;;13.80
20289;BMP180;10303;51.960;8.372;2024-02-21T11:27:22;100488.00;;;13.80
20289;BMP180;10303;51.960;8.372;2024-02-21T11:29:57;100483.00;;;13.80
20289;BMP180;10303;51.960;8.372;2024-02-21T11:32:25;100488.00;;;13.80
20289;BMP180;10303;51.960;8.372;2024-02-21T11:37:32;100471.00;;;13.80
20289;BMP180;10303;51.960;8.372;2024-02-21T11:40:09;100459.00;;;13.70
20289;BMP180;10303;51.960;8.372;2024-02-21T11:42:35;100449.00;;;13.70
20289;BMP180;10303;51.960;8.372;2024-02-21T11:45:01;100444.00;;;13.70
20289;BMP180;10303;51.960;8.372;2024-02-21T11:47:30;100441.00;;;13.70
20289;BMP180;10303;51.960;8.372;2024-02-21T11:49:57;100440.00;;;13.70
20289;BMP180;10303;51.960;8.372;2024-02-21T11:52:24;100431.00;;;13.70
20289;BMP180;10303;51.960;8.372;2024-02-21T11:54:54;100436.00;;;13.60
20289;BMP180;10303;51.960;8.372;2024-02-21T11:57:22;100431.00;;;13.60
20289;BMP180;10303;51.960;8.372;2024-02-21T11:59:48;100420.00;;;13.60
20289;BMP180;10303;51.960;8.372;2024-02-21T12:02:15;100420.00;;;13.60
20289;BMP180;10303;51.960;8.372;2024-02-21T12:04:43;100422.00;;;13.60
20289;BMP180;10303;51.960;8.372;2024-02-21T12:07:10;100417.00;;;13.60
20289;BMP180;10303;51.960;8.372;2024-02-21T12:09:36;100418.00;;;13.60
20289;BMP180;10303;51.960;8.372;2024-02-21T12:12:04;100419.00;;;13.50
20289;BMP180;10303;51.960;8.372;2024-02-21T12:14:33;100420.00;;;13.50
20289;BMP180;10303;51.960;8.372;2024-02-21T12:17:00;100403.00;;;13.50
20289;BMP180;10303;51.960;8.372;2024-02-21T12:19:30;100401.00;;;13.40
20289;BMP180;10303;51.960;8.372;2024-02-21T12:21:59;100402.00;;;13.40
20289;BMP180;10303;51.960;8.372;2024-02-21T12:24:28;100400.00;;;13.40
20289;BMP180;10303;51.960;8.372;2024-02-21T12:26:56;100386.00;;;13.40
20289;BMP180;10303;51.960;8.372;2024-02-21T12:29:25;100375.00;;;13.30
20289;BMP180;10303;51.960;8.372;2024-02-21T12:31:52;100373.00;;;13.30
20289;BMP180;10303;51.960;8.372;2024-02-21T12:34:19;100369.00;;;13.30
20289;BMP180;10303;51.960;8.372;2024-02-21T12:36:46;100356.00;;;13.30
20289;BMP180;10303;51.960;8.372;2024-02-21T12:39:15;100350.00;;;13.30
20289;BMP180;10303;51.960;8.372;2024-02-21T12:41:42;100345.00;;;13.30
20289;BMP180;10303;51.960;8.372;2024-02-21T12:44:10;100335.00;;;13.40
20289;BMP180;10303;51.960;8.372;2024-02-21T12:46:39;100325.00;;;13.40
20289;BMP180;10303;51.960;8.372;2024-02-21T12:49:08;100320.00;;;13.50
20289;BMP180;10303;51.960;8.372;2024-02-21T12:51:35;100333.00;;;13.50
20289;BMP180;10303;51.960;8.372;2024-02-21T12:54:01;100330.00;;;13.50
20289;BMP180;10303;51.960;8.372;2024-02-21T12:56:30;100319.00;;;13.50
20289;BMP180;10303;51.960;8.372;2024-02-21T12:58:57;100316.00;;;13.50
20289;BMP180;10303;51.960;8.372;2024-02-21T13:01:23;100304.00;;;13.50
20289;BMP180;10303;51.960;8.372;2024-02-21T13:03:49;100285.00;;;13.50
20289;BMP180;10303;51.960;8.372;2024-02-21T13:06:15;100283.00;;;13.60
20289;BMP180;10303;51.960;8.372;2024-02-21T13:08:41;100262.00;;;13.60
20289;BMP180;10303;51.960;8.372;2024-02-21T13:11:07;100247.00;;;13.60
20289;BMP180;10303;51.960;8.372;2024-02-21T13:13:33;100229.00;;;13.70
20289;BMP180;10303;51.960;8.372;2024-02-21T13:15:59;100205.00;;;13.70
20289;BMP180;10303;51.960;8.372;2024-02-21T13:18:25;100216.00;;;13.70
20289;BMP180;10303;51.960;8.372;2024-02-21T13:20:51;100191.00;;;13.80
20289;BMP180;10303;51.960;8.372;2024-02-21T13:23:17;100197.00;;;13.80
20289;BMP180;10303;51.960;8.372;2024-02-21T13:25:43;100202.00;;;13.90
20289;BMP180;10303;51.960;8.372;2024-02-21T13:28:12;100206.00;;;13.90
20289;BMP180;10303;51.960;8.372;2024-02-21T13:30:39;100209.00;;;13.90
20289;BMP180;10303;51.960;8.372;2024-02-21T13:33:07;100187.00;;;13.90
20289;BMP180;10303;51.960;8.372;2024-02-21T13:35:32;100185.00;;;13.90
20289;BMP180;10303;51.960;8.372;2024-02-21T13:37:58;100154.00;;;14.00
20289;BMP180;10303;51.960;8.372;2024-02-21T13:40:24;100149.00;;;14.00
20289;BMP180;10303;51.960;8.372;2024-02-21T13:42:51;100134.00;;;14.00
20289;BMP180;10303;51.960;8.372;2024-02-21T13:45:17;100140.00;;;14.00
20289;BMP180;10303;51.960;8.372;2024-02-21T13:47:43;100102.00;;;13.90
20289;BMP180;10303;51.960;8.372;2024-02-21T13:50:09;100104.00;;;13.90
20289;BMP180;10303;51.960;8.372;2024-02-21T13:52:41;100078.00;;;13.90
20289;BMP180;10303;51.960;8.372;2024-02-21T13:55:07;100080.00;;;13.90
20289;BMP180;10303;51.960;8.372;2024-02-21T13:57:38;100089.00;;;13.80
20289;BMP180;10303;51.960;8.372;2024-02-21T14:00:05;100133.00;;;13.90
20289;BMP180;10303;51.960;8.372;2024-02-21T14:02:38;100127.00;;;13.90
20289;BMP180;10303;51.960;8.372;2024-02-21T14:05:05;100129.00;;;13.90